createdAt,value
2022-09-12T00:00:55.496Z,65.99
2022-09-12T00:01:55.455Z,66.21
2022-09-12T00:02:55.447Z,65.12
2022-09-12T00:03:55.420Z,65.81
2022-09-12T00:04:55.373Z,66.19
2022-09-12T00:05:55.373Z,66.56
2022-09-12T00:06:55.339Z,65.33
2022-09-12T00:07:55.370Z,68.47
2022-09-12T00:08:55.301Z,64.58
2022-09-12T00:09:55.342Z,62.40
2022-09-12T00:10:55.308Z,66.83
2022-09-12T00:11:55.258Z,65.15
2022-09-12T00:12:55.266Z,66.08
2022-09-12T00:13:55.234Z,64.27
2022-09-12T00:14:55.233Z,69.34
2022-09-12T00:15:55.183Z,64.14
2022-09-12T00:16:55.207Z,64.43
2022-09-12T00:17:55.210Z,65.10
2022-09-12T00:18:55.134Z,65.86
2022-09-12T00:19:55.133Z,66.39
2022-09-12T00:20:55.128Z,62.03
2022-09-12T00:21:55.080Z,62.43
2022-09-12T00:22:55.097Z,66.44
2022-09-12T00:23:55.053Z,66.95
2022-09-12T00:24:55.040Z,66.91
2022-09-12T00:25:55.067Z,67.69
2022-09-12T00:26:55.009Z,64.86
2022-09-12T00:27:55.029Z,65.92
2022-09-12T00:28:54.962Z,67.22
2022-09-12T00:29:54.949Z,65.11
2022-09-12T00:30:54.942Z,64.27
2022-09-12T00:31:54.948Z,65.31
2022-09-12T00:32:54.922Z,64.68
2022-09-12T00:33:54.886Z,64.75
2022-09-12T00:34:54.873Z,65.53
2022-09-12T00:35:54.848Z,62.52
2022-09-12T00:36:54.810Z,62.64
2022-09-12T00:37:54.830Z,65.96
2022-09-12T00:38:54.865Z,66.27
2022-09-12T00:39:54.807Z,66.02
2022-09-12T00:40:54.758Z,65.78
2022-09-12T00:41:54.747Z,65.42
2022-09-12T00:42:54.755Z,65.89
2022-09-12T00:43:54.720Z,66.26
2022-09-12T00:44:54.688Z,65.89
2022-09-12T00:45:54.720Z,65.08
2022-09-12T00:46:54.691Z,65.47
2022-09-12T00:47:54.680Z,67.43
2022-09-12T00:48:54.639Z,63.55
2022-09-12T00:49:54.608Z,64.44
2022-09-12T00:50:54.595Z,66.28
2022-09-12T00:51:54.603Z,66.56
2022-09-12T00:52:54.630Z,65.34
2022-09-12T00:53:54.531Z,66.15
2022-09-12T00:54:54.523Z,63.70
2022-09-12T00:55:54.505Z,65.34
2022-09-12T00:56:54.491Z,64.83
2022-09-12T00:57:54.504Z,68.00
2022-09-12T00:58:54.455Z,67.67
2022-09-12T00:59:54.521Z,68.19
2022-09-12T01:00:54.670Z,66.97
2022-09-12T01:01:54.491Z,65.67
2022-09-12T01:02:54.433Z,64.09
2022-09-12T01:03:54.383Z,66.28
2022-09-12T01:04:54.359Z,68.62
2022-09-12T01:05:54.348Z,67.71
2022-09-12T01:06:54.360Z,66.43
2022-09-12T01:07:54.345Z,66.58
2022-09-12T01:08:54.319Z,67.62
2022-09-12T01:09:54.273Z,66.98
2022-09-12T01:10:54.280Z,66.10
2022-09-12T01:11:54.244Z,67.35
2022-09-12T01:12:54.260Z,66.14
2022-09-12T01:13:54.214Z,67.25
2022-09-12T01:14:54.204Z,67.63
2022-09-12T01:15:54.178Z,67.80
2022-09-12T01:16:54.177Z,65.45
2022-09-12T01:17:54.184Z,67.87
2022-09-12T01:18:54.128Z,68.27
2022-09-12T01:19:54.104Z,64.58
2022-09-12T01:20:54.092Z,65.57
2022-09-12T01:21:54.073Z,67.24
2022-09-12T01:22:54.110Z,67.70
2022-09-12T01:23:54.052Z,68.55
2022-09-12T01:24:54.024Z,66.76
2022-09-12T01:25:54.027Z,65.53
2022-09-12T01:26:53.985Z,65.40
2022-09-12T01:27:54.007Z,66.20
2022-09-12T01:28:53.956Z,67.01
2022-09-12T01:29:53.957Z,67.34
2022-09-12T01:30:53.917Z,67.93
2022-09-12T01:31:53.925Z,67.85
2022-09-12T01:32:53.926Z,69.45
2022-09-12T01:33:53.875Z,67.60
2022-09-12T01:34:53.852Z,68.08
2022-09-12T01:35:53.838Z,69.68
2022-09-12T01:36:53.820Z,66.50
2022-09-12T01:37:53.829Z,66.33
2022-09-12T01:38:53.781Z,67.74
2022-09-12T01:39:53.858Z,65.76
2022-09-12T01:40:53.741Z,65.85
2022-09-12T01:41:53.737Z,67.93
2022-09-12T01:42:53.742Z,69.88
2022-09-12T01:43:53.692Z,63.72
2022-09-12T01:44:53.702Z,68.84
2022-09-12T01:45:53.712Z,67.26
2022-09-12T01:46:53.660Z,67.27
2022-09-12T01:47:53.670Z,66.62
2022-09-12T01:48:53.626Z,67.22
2022-09-12T01:49:54.614Z,68.99
2022-09-12T01:50:53.593Z,68.42
2022-09-12T01:51:53.594Z,66.57
2022-09-12T01:52:53.600Z,66.16
2022-09-12T01:53:53.528Z,66.21
2022-09-12T01:54:53.518Z,68.84
2022-09-12T01:55:53.520Z,68.50
2022-09-12T01:56:53.473Z,68.25
2022-09-12T01:57:54.499Z,67.10
2022-09-12T01:58:53.444Z,67.56
2022-09-12T01:59:53.439Z,67.45
2022-09-12T02:00:53.448Z,67.23
2022-09-12T02:01:53.435Z,67.79
2022-09-12T02:02:53.372Z,68.34
2022-09-12T02:03:53.389Z,66.40
2022-09-12T02:04:53.342Z,67.32
2022-09-12T02:05:53.335Z,67.14
2022-09-12T02:06:53.323Z,67.63
2022-09-12T02:07:53.296Z,67.71
2022-09-12T02:08:53.309Z,66.64
2022-09-12T02:09:53.263Z,67.42
2022-09-12T02:10:53.263Z,66.14
2022-09-12T02:11:53.234Z,66.94
2022-09-12T02:12:53.227Z,69.06
2022-09-12T02:13:53.237Z,67.25
2022-09-12T02:14:53.186Z,66.43
2022-09-12T02:15:53.157Z,68.06
2022-09-12T02:16:53.152Z,65.50
2022-09-12T02:17:53.149Z,66.42
2022-09-12T02:18:53.141Z,70.70
2022-09-12T02:19:53.098Z,68.79
2022-09-12T02:20:53.114Z,70.67
2022-09-12T02:21:53.079Z,66.85
2022-09-12T02:22:53.093Z,66.64
2022-09-12T02:23:53.074Z,68.38
2022-09-12T02:24:53.009Z,69.16
2022-09-12T02:25:53.104Z,68.14
2022-09-12T02:26:53.017Z,67.16
2022-09-12T02:27:52.991Z,67.61
2022-09-12T02:28:52.981Z,69.39
2022-09-12T02:29:52.932Z,68.67
2022-09-12T02:30:52.964Z,68.10
2022-09-12T02:31:52.894Z,66.86
2022-09-12T02:32:52.868Z,69.01
2022-09-12T02:33:52.885Z,69.49
2022-09-12T02:34:52.840Z,69.69
2022-09-12T02:35:52.824Z,68.64
2022-09-12T02:36:52.801Z,68.65
2022-09-12T02:37:52.798Z,67.94
2022-09-12T02:38:52.931Z,70.66
2022-09-12T02:39:52.773Z,68.07
2022-09-12T02:40:52.752Z,67.61
2022-09-12T02:41:52.714Z,68.94
2022-09-12T02:42:52.721Z,69.18
2022-09-12T02:43:52.720Z,66.81
2022-09-12T02:44:52.695Z,65.82
2022-09-12T02:45:52.677Z,68.32
2022-09-12T02:46:52.637Z,68.32
2022-09-12T02:47:52.623Z,68.59
2022-09-12T02:48:52.648Z,71.39
2022-09-12T02:49:52.581Z,70.73
2022-09-12T02:50:52.586Z,69.16
2022-09-12T02:51:52.546Z,67.88
2022-09-12T02:52:52.539Z,68.02
2022-09-12T02:53:52.551Z,69.45
2022-09-12T02:54:52.518Z,69.12
2022-09-12T02:55:52.497Z,68.77
2022-09-12T02:56:52.504Z,68.87
2022-09-12T02:57:52.477Z,66.67
2022-09-12T02:58:52.463Z,68.93
2022-09-12T02:59:52.427Z,69.12
2022-09-12T03:00:52.465Z,70.14
2022-09-12T03:01:52.434Z,67.97
2022-09-12T03:02:52.389Z,69.47
2022-09-12T03:03:53.382Z,68.97
2022-09-12T03:04:52.351Z,69.02
2022-09-12T03:05:52.329Z,66.96
2022-09-12T03:06:52.320Z,69.64
2022-09-12T03:07:52.294Z,70.59
2022-09-12T03:08:52.330Z,69.35
2022-09-12T03:09:52.264Z,68.77
2022-09-12T03:10:52.243Z,69.25
2022-09-12T03:11:52.222Z,68.80
2022-09-12T03:12:52.200Z,68.60
2022-09-12T03:13:52.228Z,68.78
2022-09-12T03:14:52.179Z,67.34
2022-09-12T03:15:52.171Z,67.59
2022-09-12T03:16:52.139Z,69.78
2022-09-12T03:17:52.137Z,70.36
2022-09-12T03:18:52.144Z,68.82
2022-09-12T03:19:52.094Z,68.80
2022-09-12T03:20:52.071Z,69.90
2022-09-12T03:21:52.058Z,69.25
2022-09-12T03:22:52.044Z,69.96
2022-09-12T03:23:52.081Z,70.82
2022-09-12T03:24:52.029Z,68.79
2022-09-12T03:25:51.990Z,69.81
2022-09-12T03:26:51.975Z,66.96
2022-09-12T03:27:51.951Z,69.32
2022-09-12T03:28:51.967Z,67.56
2022-09-12T03:29:51.923Z,68.68
2022-09-12T03:30:51.942Z,69.14
2022-09-12T03:31:51.887Z,69.19
2022-09-12T03:32:51.882Z,69.48
2022-09-12T03:33:51.892Z,68.01
2022-09-12T03:34:51.844Z,66.89
2022-09-12T03:35:51.824Z,66.94
2022-09-12T03:36:51.810Z,68.74
2022-09-12T03:37:51.787Z,70.96
2022-09-12T03:38:51.801Z,68.28
2022-09-12T03:39:51.782Z,69.12
2022-09-12T03:40:54.805Z,69.91
2022-09-12T03:41:52.717Z,72.34
2022-09-12T03:42:51.705Z,70.30
2022-09-12T03:43:51.712Z,71.37
2022-09-12T03:44:51.669Z,70.21
2022-09-12T03:45:51.663Z,70.82
2022-09-12T03:46:51.634Z,71.22
2022-09-12T03:47:51.641Z,70.99
2022-09-12T03:48:51.636Z,69.95
2022-09-12T03:49:51.588Z,71.53
2022-09-12T03:50:51.561Z,69.47
2022-09-12T03:51:51.553Z,69.32
2022-09-12T03:52:51.532Z,71.12
2022-09-12T03:53:51.541Z,70.66
2022-09-12T03:54:51.491Z,68.77
2022-09-12T03:55:51.479Z,71.43
2022-09-12T03:56:51.464Z,71.94
2022-09-12T03:57:51.455Z,71.68
2022-09-12T03:58:51.463Z,73.08
2022-09-12T03:59:51.418Z,72.37
2022-09-12T04:00:51.441Z,70.01
2022-09-12T04:01:51.451Z,70.81
2022-09-12T04:02:51.369Z,70.77
2022-09-12T04:03:51.398Z,69.54
2022-09-12T04:04:51.358Z,71.11
2022-09-12T04:05:51.307Z,70.78
2022-09-12T04:06:51.301Z,69.74
2022-09-12T04:07:51.297Z,71.51
2022-09-12T04:08:51.361Z,70.05
2022-09-12T04:09:51.269Z,70.12
2022-09-12T04:10:51.227Z,68.59
2022-09-12T04:11:51.226Z,69.81
2022-09-12T04:12:51.207Z,69.48
2022-09-12T04:13:51.220Z,69.90
2022-09-12T04:14:51.162Z,70.79
2022-09-12T04:15:51.151Z,71.00
2022-09-12T04:16:51.216Z,71.78
2022-09-12T04:17:51.122Z,70.90
2022-09-12T04:18:51.124Z,71.27
2022-09-12T04:19:51.086Z,70.93
2022-09-12T04:20:51.052Z,70.81
2022-09-12T04:21:51.045Z,68.91
2022-09-12T04:22:51.037Z,71.98
2022-09-12T04:23:51.047Z,69.35
2022-09-12T04:24:50.986Z,70.71
2022-09-12T04:25:50.971Z,67.33
2022-09-12T04:26:50.988Z,70.85
2022-09-12T04:27:50.933Z,71.80
2022-09-12T04:28:50.952Z,71.18
2022-09-12T04:29:50.900Z,70.08
2022-09-12T04:30:50.977Z,71.15
2022-09-12T04:31:50.864Z,70.29
2022-09-12T04:32:50.864Z,70.43
2022-09-12T04:33:50.872Z,70.11
2022-09-12T04:34:50.826Z,71.90
2022-09-12T04:35:50.794Z,69.83
2022-09-12T04:36:50.795Z,70.97
2022-09-12T04:37:50.758Z,69.18
2022-09-12T04:38:50.769Z,69.90
2022-09-12T04:39:50.877Z,71.54
2022-09-12T04:40:50.715Z,71.95
2022-09-12T04:41:50.691Z,69.00
2022-09-12T04:42:50.680Z,70.56
2022-09-12T04:43:50.691Z,71.43
2022-09-12T04:44:50.647Z,71.80
2022-09-12T04:45:50.674Z,71.33
2022-09-12T04:46:50.607Z,71.20
2022-09-12T04:47:50.616Z,68.95
2022-09-12T04:48:54.601Z,70.36
2022-09-12T04:49:52.565Z,71.95
2022-09-12T04:50:50.548Z,72.35
2022-09-12T04:51:50.538Z,72.43
2022-09-12T04:52:50.503Z,68.39
2022-09-12T04:53:50.522Z,72.56
2022-09-12T04:54:50.460Z,71.43
2022-09-12T04:55:51.460Z,71.50
2022-09-12T04:56:50.463Z,72.19
2022-09-12T04:57:50.426Z,72.15
2022-09-12T04:58:50.452Z,70.45
2022-09-12T04:59:50.396Z,71.04
2022-09-12T05:00:50.358Z,71.87
2022-09-12T05:01:50.397Z,70.75
2022-09-12T05:02:50.355Z,68.42
2022-09-12T05:03:50.346Z,70.36
2022-09-12T05:04:50.297Z,71.23
2022-09-12T05:05:53.305Z,70.82
2022-09-12T05:06:52.268Z,69.54
2022-09-12T05:07:50.246Z,69.40
2022-09-12T05:08:50.267Z,70.11
2022-09-12T05:09:50.200Z,69.90
2022-09-12T05:10:50.230Z,68.59
2022-09-12T05:12:05.940Z,69.24
2022-09-12T05:12:52.161Z,69.50
2022-09-12T05:13:50.193Z,70.03
2022-09-12T05:14:50.132Z,70.52
2022-09-12T05:15:50.109Z,68.86
2022-09-12T05:16:50.146Z,70.57
2022-09-12T05:17:50.075Z,69.66
2022-09-12T05:18:50.103Z,70.15
2022-09-12T05:19:50.039Z,70.97
2022-09-12T05:20:50.047Z,70.85
2022-09-12T05:21:50.001Z,69.32
2022-09-12T05:22:49.993Z,71.66
2022-09-12T05:23:50.001Z,70.29
2022-09-12T05:24:50.650Z,70.57
2022-09-12T05:25:50.941Z,70.88
2022-09-12T05:26:49.917Z,70.69
2022-09-12T05:27:50.591Z,69.81
2022-09-12T05:28:50.923Z,69.26
2022-09-12T05:29:50.872Z,68.51
2022-09-12T05:30:49.860Z,68.16
2022-09-12T05:31:49.840Z,68.61
2022-09-12T05:32:49.814Z,70.94
2022-09-12T05:33:49.826Z,69.25
2022-09-12T05:34:49.782Z,69.80
2022-09-12T05:35:49.766Z,68.16
2022-09-12T05:36:49.770Z,69.18
2022-09-12T05:37:49.729Z,67.77
2022-09-12T05:38:49.737Z,67.78
2022-09-12T05:39:49.724Z,66.75
2022-09-12T05:40:49.670Z,68.91
2022-09-12T05:41:49.651Z,68.44
2022-09-12T05:42:49.635Z,66.14
2022-09-12T05:43:49.658Z,66.91
2022-09-12T05:44:49.618Z,67.72
2022-09-12T05:45:49.617Z,66.67
2022-09-12T05:46:49.585Z,65.55
2022-09-12T05:47:49.590Z,66.32
2022-09-12T05:48:53.710Z,66.58
2022-09-12T05:49:51.529Z,67.50
2022-09-12T05:50:49.512Z,67.01
2022-09-12T05:51:49.519Z,66.10
2022-09-12T05:52:49.478Z,67.38
2022-09-12T05:53:49.538Z,66.93
2022-09-12T05:54:49.488Z,66.29
2022-09-12T05:55:49.420Z,64.64
2022-09-12T05:56:49.425Z,66.65
2022-09-12T05:57:49.374Z,67.13
2022-09-12T05:58:49.393Z,65.97
2022-09-12T05:59:49.336Z,65.29
2022-09-12T06:00:49.323Z,65.01
2022-09-12T06:01:49.444Z,66.82
2022-09-12T06:02:49.292Z,66.24
2022-09-12T06:03:49.313Z,66.95
2022-09-12T06:04:49.278Z,66.09
2022-09-12T06:05:50.738Z,64.16
2022-09-12T06:06:50.287Z,67.45
2022-09-12T06:07:49.222Z,65.05
2022-09-12T06:08:49.304Z,64.99
2022-09-12T06:09:49.180Z,64.36
2022-09-12T06:10:49.155Z,65.27
2022-09-12T06:11:49.157Z,64.57
2022-09-12T06:12:49.152Z,66.88
2022-09-12T06:13:49.148Z,65.02
2022-09-12T06:14:49.106Z,67.05
2022-09-12T06:15:49.090Z,65.47
2022-09-12T06:16:49.103Z,63.82
2022-09-12T06:17:51.395Z,64.89
2022-09-12T06:18:50.074Z,64.48
2022-09-12T06:19:49.018Z,63.05
2022-09-12T06:20:49.005Z,64.39
2022-09-12T06:21:48.980Z,64.17
2022-09-12T06:22:48.985Z,64.16
2022-09-12T06:23:48.972Z,63.85
2022-09-12T06:24:48.951Z,63.64
2022-09-12T06:25:48.903Z,65.17
2022-09-12T06:26:48.891Z,65.03
2022-09-12T06:27:49.879Z,64.90
2022-09-12T06:28:48.899Z,65.58
2022-09-12T06:29:48.928Z,64.97
2022-09-12T06:30:48.941Z,64.66
2022-09-12T06:31:48.821Z,65.41
2022-09-12T06:32:48.802Z,65.22
2022-09-12T06:33:48.846Z,64.29
2022-09-12T06:34:48.798Z,64.58
2022-09-12T06:35:48.783Z,63.37
2022-09-12T06:36:48.730Z,64.48
2022-09-12T06:37:48.717Z,63.34
2022-09-12T06:38:48.742Z,65.24
2022-09-12T06:39:48.776Z,63.84
2022-09-12T06:40:48.762Z,64.06
2022-09-12T06:41:48.657Z,63.88
2022-09-12T06:42:48.640Z,64.32
2022-09-12T06:43:48.703Z,63.89
2022-09-12T06:44:48.648Z,64.90
2022-09-12T06:45:48.710Z,64.50
2022-09-12T06:46:48.588Z,64.30
2022-09-12T06:47:48.592Z,63.70
2022-09-12T06:48:48.723Z,63.70
2022-09-12T06:49:48.552Z,63.01
2022-09-12T06:50:48.515Z,63.55
2022-09-12T06:51:48.510Z,63.32
2022-09-12T06:52:48.508Z,62.85
2022-09-12T06:53:48.517Z,64.67
2022-09-12T06:54:48.470Z,62.94
2022-09-12T06:55:48.475Z,63.20
2022-09-12T06:56:48.430Z,62.39
2022-09-12T06:57:48.401Z,64.40
2022-09-12T06:58:48.455Z,62.32
2022-09-12T06:59:48.371Z,62.48
2022-09-12T07:00:48.360Z,64.72
2022-09-12T07:01:48.421Z,63.14
2022-09-12T07:02:48.330Z,62.88
2022-09-12T07:03:48.339Z,63.70
2022-09-12T07:04:48.287Z,64.92
2022-09-12T07:05:48.303Z,62.23
2022-09-12T07:06:48.255Z,63.90
2022-09-12T07:07:48.249Z,64.60
2022-09-12T07:08:48.274Z,62.84
2022-09-12T07:09:48.213Z,62.54
2022-09-12T07:10:48.198Z,63.47
2022-09-12T07:11:48.175Z,64.96
2022-09-12T07:12:48.168Z,64.45
2022-09-12T07:13:48.166Z,64.10
2022-09-12T07:14:48.134Z,63.13
2022-09-12T07:15:48.109Z,62.97
2022-09-12T07:16:48.176Z,63.86
2022-09-12T07:17:48.080Z,63.26
2022-09-12T07:18:48.096Z,64.57
2022-09-12T07:19:48.074Z,64.04
2022-09-12T07:20:48.032Z,63.41
2022-09-12T07:21:48.012Z,64.84
2022-09-12T07:22:48.008Z,64.89
2022-09-12T07:23:48.281Z,64.76
2022-09-12T07:24:47.980Z,64.57
2022-09-12T07:25:47.965Z,64.82
2022-09-12T07:26:47.963Z,64.66
2022-09-12T07:27:51.095Z,65.10
2022-09-12T07:28:48.967Z,65.63
2022-09-12T07:29:47.917Z,62.88
2022-09-12T07:30:47.984Z,63.17
2022-09-12T07:31:47.865Z,62.60
2022-09-12T07:32:47.871Z,63.99
2022-09-12T07:33:52.361Z,63.38
2022-09-12T07:34:49.851Z,61.30
2022-09-12T07:35:47.821Z,62.07
2022-09-12T07:36:47.792Z,62.90
2022-09-12T07:37:47.792Z,61.97
2022-09-12T07:38:47.896Z,62.99
2022-09-12T07:39:47.780Z,63.17
2022-09-12T07:40:47.732Z,63.39
2022-09-12T07:41:47.723Z,62.41
2022-09-12T07:42:47.699Z,63.40
2022-09-12T07:43:47.889Z,64.31
2022-09-12T07:44:47.684Z,63.22
2022-09-12T07:45:47.701Z,62.84
2022-09-12T07:46:47.649Z,63.68
2022-09-12T07:47:47.663Z,60.29
2022-09-12T07:48:47.660Z,61.33
2022-09-12T07:49:47.667Z,62.78
2022-09-12T07:50:47.641Z,59.87
2022-09-12T07:51:47.656Z,63.52
2022-09-12T07:52:47.560Z,61.50
2022-09-12T07:53:47.733Z,60.71
2022-09-12T07:54:47.526Z,62.10
2022-09-12T07:55:47.539Z,61.69
2022-09-12T07:56:47.497Z,60.00
2022-09-12T07:57:47.481Z,62.27
2022-09-12T07:58:47.557Z,61.96
2022-09-12T07:59:52.773Z,62.24
2022-09-12T08:00:49.443Z,61.88
2022-09-12T08:01:47.436Z,61.30
2022-09-12T08:02:47.431Z,59.68
2022-09-12T08:03:47.594Z,60.59
2022-09-12T08:04:47.376Z,61.93
2022-09-12T08:05:47.369Z,62.32
2022-09-12T08:06:47.353Z,63.11
2022-09-12T08:07:47.336Z,61.51
2022-09-12T08:08:47.356Z,60.29
2022-09-12T08:09:47.310Z,60.93
2022-09-12T08:10:47.395Z,62.14
2022-09-12T08:11:47.278Z,61.17
2022-09-12T08:12:47.268Z,62.91
2022-09-12T08:13:49.635Z,62.68
2022-09-12T08:14:48.253Z,62.51
2022-09-12T08:15:47.246Z,62.79
2022-09-12T08:16:47.235Z,62.86
2022-09-12T08:17:47.200Z,63.68
2022-09-12T08:18:47.210Z,63.02
2022-09-12T08:19:47.167Z,63.70
2022-09-12T08:20:47.168Z,62.61
2022-09-12T08:21:47.136Z,62.06
2022-09-12T08:22:47.130Z,62.06
2022-09-12T08:23:47.295Z,60.58
2022-09-12T08:24:47.102Z,62.93
2022-09-12T08:25:47.097Z,61.45
2022-09-12T08:26:47.101Z,62.31
2022-09-12T08:27:47.067Z,60.34
2022-09-12T08:28:47.095Z,60.89
2022-09-12T08:29:47.034Z,61.76
2022-09-12T08:30:47.073Z,61.55
2022-09-12T08:31:47.009Z,60.68
2022-09-12T08:32:47.032Z,61.88
2022-09-12T08:33:47.104Z,61.64
2022-09-12T08:34:46.980Z,62.21
2022-09-12T08:35:46.937Z,62.41
2022-09-12T08:36:46.925Z,63.60
2022-09-12T08:37:46.926Z,63.92
2022-09-12T08:38:46.948Z,62.42
2022-09-12T08:39:46.905Z,62.74
2022-09-12T08:40:46.897Z,62.27
2022-09-12T08:41:46.866Z,64.26
2022-09-12T08:42:46.840Z,63.59
2022-09-12T08:43:46.924Z,63.63
2022-09-12T08:44:46.817Z,63.40
2022-09-12T08:45:47.837Z,64.05
2022-09-12T08:46:47.127Z,62.53
2022-09-12T08:47:46.773Z,61.99
2022-09-12T08:48:46.815Z,62.79
2022-09-12T08:49:46.754Z,61.13
2022-09-12T08:50:49.849Z,60.84
2022-09-12T08:51:47.715Z,63.11
2022-09-12T08:52:46.708Z,63.92
2022-09-12T08:53:47.298Z,62.47
2022-09-12T08:54:46.700Z,62.68
2022-09-12T08:55:46.668Z,63.01
2022-09-12T08:56:46.654Z,62.86
2022-09-12T08:57:46.646Z,62.76
2022-09-12T08:58:46.655Z,63.20
2022-09-12T08:59:46.618Z,64.13
2022-09-12T09:00:46.592Z,63.14
2022-09-12T09:01:52.539Z,62.21
2022-09-12T09:02:47.677Z,63.76
2022-09-12T09:03:46.670Z,61.85
2022-09-12T09:04:46.553Z,63.76
2022-09-12T09:05:46.522Z,63.79
2022-09-12T09:06:46.515Z,63.57
2022-09-12T09:07:46.491Z,64.14
2022-09-12T09:08:46.506Z,62.71
2022-09-12T09:09:46.472Z,62.62
2022-09-12T09:10:46.447Z,63.50
2022-09-12T09:11:46.468Z,64.84
2022-09-12T09:12:46.420Z,65.13
2022-09-12T09:13:46.562Z,63.90
2022-09-12T09:14:46.392Z,60.80
2022-09-12T09:15:46.411Z,63.51
2022-09-12T09:16:46.375Z,63.87
2022-09-12T09:17:46.353Z,62.28
2022-09-12T09:18:46.366Z,63.83
2022-09-12T09:19:50.109Z,61.76
2022-09-12T09:20:47.334Z,64.19
2022-09-12T09:21:46.330Z,65.47
2022-09-12T09:22:46.275Z,63.52
2022-09-12T09:23:46.367Z,64.54
2022-09-12T09:24:46.259Z,64.89
2022-09-12T09:25:46.239Z,63.54
2022-09-12T09:26:46.211Z,64.71
2022-09-12T09:27:46.211Z,66.38
2022-09-12T09:28:46.210Z,64.66
2022-09-12T09:29:46.160Z,66.16
2022-09-12T09:30:46.184Z,65.11
2022-09-12T09:31:46.146Z,63.50
2022-09-12T09:32:46.150Z,63.91
2022-09-12T09:33:46.237Z,66.03
2022-09-12T09:34:46.098Z,65.19
2022-09-12T09:35:46.094Z,67.32
2022-09-12T09:36:46.061Z,65.83
2022-09-12T09:37:46.056Z,64.93
2022-09-12T09:38:46.194Z,63.45
2022-09-12T09:39:46.062Z,63.58
2022-09-12T09:40:45.995Z,65.61
2022-09-12T09:41:45.989Z,66.24
2022-09-12T09:42:45.972Z,67.07
2022-09-12T09:43:45.986Z,65.85
2022-09-12T09:44:45.938Z,66.84
2022-09-12T09:45:47.867Z,66.91
2022-09-12T09:46:46.945Z,65.71
2022-09-12T09:47:45.888Z,66.13
2022-09-12T09:48:46.023Z,65.59
2022-09-12T09:49:45.955Z,66.43
2022-09-12T09:50:46.842Z,65.11
2022-09-12T09:51:45.832Z,65.10
2022-09-12T09:52:45.818Z,65.89
2022-09-12T09:53:45.870Z,64.27
2022-09-12T09:54:45.783Z,66.00
2022-09-12T09:55:45.775Z,68.47
2022-09-12T09:56:45.748Z,64.60
2022-09-12T09:57:45.758Z,65.06
2022-09-12T09:58:45.847Z,64.32
2022-09-12T09:59:45.707Z,65.91
2022-09-12T10:00:45.688Z,65.64
2022-09-12T10:01:45.701Z,65.58
2022-09-12T10:02:45.724Z,65.90
2022-09-12T10:03:45.681Z,64.74
2022-09-12T10:04:45.639Z,65.36
2022-09-12T10:05:45.619Z,65.19
2022-09-12T10:06:45.606Z,63.66
2022-09-12T10:07:45.600Z,62.96
2022-09-12T10:08:45.664Z,63.61
2022-09-12T10:09:45.557Z,62.04
2022-09-12T10:10:45.566Z,64.46
2022-09-12T10:11:46.116Z,65.54
2022-09-12T10:12:46.530Z,63.58
2022-09-12T10:13:45.554Z,62.71
2022-09-12T10:14:45.477Z,62.00
2022-09-12T10:15:45.538Z,62.58
2022-09-12T10:16:45.459Z,62.73
2022-09-12T10:17:45.442Z,62.03
2022-09-12T10:18:45.886Z,62.41
2022-09-12T10:19:49.855Z,63.93
2022-09-12T10:20:46.384Z,63.17
2022-09-12T10:21:45.375Z,64.10
2022-09-12T10:22:45.381Z,62.93
2022-09-12T10:23:45.461Z,62.61
2022-09-12T10:24:45.344Z,63.10
2022-09-12T10:25:45.326Z,62.61
2022-09-12T10:26:45.289Z,63.01
2022-09-12T10:27:45.288Z,62.61
2022-09-12T10:28:45.437Z,63.79
2022-09-12T10:29:45.254Z,63.94
2022-09-12T10:30:45.302Z,60.67
2022-09-12T10:31:45.223Z,61.09
2022-09-12T10:32:45.226Z,61.68
2022-09-12T10:33:45.274Z,61.23
2022-09-12T10:34:45.178Z,64.03
2022-09-12T10:35:45.162Z,62.65
2022-09-12T10:36:45.158Z,62.33
2022-09-12T10:37:48.328Z,62.49
2022-09-12T10:38:46.157Z,60.52
2022-09-12T10:39:45.172Z,61.54
2022-09-12T10:40:45.126Z,61.47
2022-09-12T10:41:45.081Z,64.93
2022-09-12T10:42:45.080Z,65.64
2022-09-12T10:43:45.095Z,63.79
2022-09-12T10:44:45.039Z,64.49
2022-09-12T10:45:45.058Z,64.92
2022-09-12T10:46:45.004Z,66.05
2022-09-12T10:47:44.993Z,63.62
2022-09-12T10:48:45.006Z,63.49
2022-09-12T10:49:44.968Z,62.10
2022-09-12T10:50:44.943Z,62.29
2022-09-12T10:51:44.955Z,61.36
2022-09-12T10:52:44.911Z,63.36
2022-09-12T10:53:45.002Z,63.68
2022-09-12T10:54:44.877Z,62.27
2022-09-12T10:55:44.860Z,64.25
2022-09-12T10:56:44.866Z,62.73
2022-09-12T10:57:44.832Z,64.32
2022-09-12T10:58:44.966Z,62.72
2022-09-12T10:59:44.813Z,63.17
2022-09-12T11:00:44.796Z,61.62
2022-09-12T11:01:44.864Z,62.50
2022-09-12T11:02:44.828Z,62.36
2022-09-12T11:03:44.786Z,63.13
2022-09-12T11:04:44.734Z,63.30
2022-09-12T11:05:44.741Z,62.00
2022-09-12T11:06:44.738Z,63.72
2022-09-12T11:07:44.709Z,63.25
2022-09-12T11:08:44.707Z,66.99
2022-09-12T11:09:44.654Z,65.24
2022-09-12T11:10:44.665Z,65.25
2022-09-12T11:11:44.617Z,66.02
2022-09-12T11:12:44.599Z,65.81
2022-09-12T11:13:44.627Z,65.13
2022-09-12T11:14:44.587Z,63.32
2022-09-12T11:15:44.644Z,64.65
2022-09-12T11:16:44.549Z,65.55
2022-09-12T11:17:44.525Z,65.52
2022-09-12T11:18:44.538Z,64.28
2022-09-12T11:19:44.497Z,64.73
2022-09-12T11:20:44.474Z,64.42
2022-09-12T11:21:44.500Z,61.36
2022-09-12T11:22:44.441Z,62.85
2022-09-12T11:23:44.487Z,63.26
2022-09-12T11:24:44.413Z,61.20
2022-09-12T11:25:44.405Z,63.95
2022-09-12T11:26:44.388Z,63.29
2022-09-12T11:27:44.382Z,64.33
2022-09-12T11:28:47.253Z,64.97
2022-09-12T11:29:45.389Z,64.35
2022-09-12T11:30:44.354Z,64.09
2022-09-12T11:31:44.366Z,66.49
2022-09-12T11:32:44.302Z,65.27
2022-09-12T11:33:44.500Z,65.68
2022-09-12T11:34:44.263Z,65.12
2022-09-12T11:35:44.294Z,64.77
2022-09-12T11:36:44.255Z,65.23
2022-09-12T11:37:44.252Z,63.22
2022-09-12T11:38:44.263Z,63.33
2022-09-12T11:39:44.229Z,63.53
2022-09-12T11:40:44.163Z,64.07
2022-09-12T11:41:44.157Z,65.29
2022-09-12T11:42:44.139Z,64.92
2022-09-12T11:43:44.160Z,63.34
2022-09-12T11:44:44.124Z,65.15
2022-09-12T11:45:44.131Z,66.05
2022-09-12T11:46:45.893Z,66.08
2022-09-12T11:47:44.062Z,61.51
2022-09-12T11:48:44.112Z,63.68
2022-09-12T11:49:44.015Z,64.96
2022-09-12T11:50:44.051Z,63.36
2022-09-12T11:51:43.994Z,64.88
2022-09-12T11:52:43.976Z,62.97
2022-09-12T11:53:44.000Z,64.16
2022-09-12T11:54:43.947Z,62.11
2022-09-12T11:55:43.945Z,61.77
2022-09-12T11:56:43.930Z,64.39
2022-09-12T11:57:43.891Z,63.92
2022-09-12T11:58:43.882Z,65.55
2022-09-12T11:59:43.992Z,64.42
2022-09-12T12:00:43.850Z,63.49
2022-09-12T12:01:48.363Z,64.76
2022-09-12T12:02:45.859Z,66.36
2022-09-12T12:03:43.850Z,63.73
2022-09-12T12:04:43.838Z,63.62
2022-09-12T12:05:43.763Z,63.01
2022-09-12T12:06:43.756Z,64.93
2022-09-12T12:07:45.764Z,62.24
2022-09-12T12:08:44.723Z,61.20
2022-09-12T12:09:43.795Z,64.75
2022-09-12T12:10:43.690Z,64.59
2022-09-12T12:11:43.668Z,65.90
2022-09-12T12:12:43.673Z,65.93
2022-09-12T12:13:43.640Z,65.28
2022-09-12T12:14:43.649Z,64.43
2022-09-12T12:15:43.641Z,63.69
2022-09-12T12:16:43.586Z,64.38
2022-09-12T12:17:43.575Z,62.81
2022-09-12T12:18:43.562Z,63.52
2022-09-12T12:19:43.653Z,60.45
2022-09-12T12:20:43.526Z,60.87
2022-09-12T12:21:43.526Z,64.69
2022-09-12T12:22:43.491Z,63.05
2022-09-12T12:23:43.480Z,61.49
2022-09-12T12:24:43.494Z,61.51
2022-09-12T12:25:43.440Z,62.56
2022-09-12T12:26:43.433Z,62.43
2022-09-12T12:27:43.425Z,60.18
2022-09-12T12:28:43.406Z,61.67
2022-09-12T12:29:44.270Z,62.18
2022-09-12T12:30:44.407Z,63.78
2022-09-12T12:31:43.360Z,63.16
2022-09-12T12:32:43.367Z,61.33
2022-09-12T12:33:43.308Z,62.54
2022-09-12T12:34:43.334Z,64.02
2022-09-12T12:35:43.275Z,64.79
2022-09-12T12:36:43.267Z,67.88
2022-09-12T12:37:43.261Z,65.50
2022-09-12T12:38:43.234Z,66.24
2022-09-12T12:39:43.310Z,67.02
2022-09-12T12:40:43.200Z,67.30
2022-09-12T12:41:43.214Z,67.10
2022-09-12T12:42:43.159Z,67.36
2022-09-12T12:43:43.149Z,65.43
2022-09-12T12:44:43.176Z,65.38
2022-09-12T12:45:43.114Z,65.89
2022-09-12T12:46:43.141Z,64.98
2022-09-12T12:47:43.078Z,66.66
2022-09-12T12:48:43.109Z,65.15
2022-09-12T12:49:43.097Z,64.76
2022-09-12T12:50:43.042Z,64.40
2022-09-12T12:51:43.023Z,64.60
2022-09-12T12:52:43.011Z,65.56